Washington, Illinois
Current Conditions -  °F | °C
As of 5:54 PM on Saturday 25 Oct 2014 (Local Time) from KPIA Reporting Station
Clear Clear  
Wind Chill: 71°   Ceiling: Unl
Heat Index: 71°   Visibility: 10mi
Dew Point: 38°   Wind: 3mph
Humidity: 30%   Direction: 290°WNW
Pressure: 30"   Gusts: NA
Location:  40.7°N, 89.4°W
Report Text: KPIA 252254Z 29003KT 10SM CLR 22/03 A3000 RMK AO2 SLP156 T02170033
Loading
Personal Weather Stations






























Interactive Weather Map
Tropical Storm Tracking
New forecast layout! Learn more

10-Day Weather Forecast

Advertisements
Track Severe Weather on mobile